createdAt,value
2019-03-29T00:05:39.663Z,103306.11
2019-03-29T00:11:38.810Z,103293.72
2019-03-29T00:14:09.410Z,103297.69
2019-03-29T00:16:41.165Z,103288.80
2019-03-29T00:19:13.950Z,103285.70
2019-03-29T00:21:44.863Z,103278.59
2019-03-29T00:28:07.496Z,103275.48
2019-03-29T00:34:30.190Z,103276.80
2019-03-29T00:36:59.769Z,103273.69
2019-03-29T00:39:30.046Z,103273.23
2019-03-29T00:42:02.581Z,103267.48
2019-03-29T00:48:01.224Z,103260.86
2019-03-29T00:54:54.839Z,103257.74
2019-03-29T01:00:53.798Z,103254.62
2019-03-29T01:03:23.880Z,103254.62
2019-03-29T01:05:53.405Z,103256.81
2019-03-29T01:08:22.925Z,103246.19
2019-03-29T01:10:53.699Z,103246.19
2019-03-29T01:13:24.228Z,103242.20
2019-03-29T01:15:54.780Z,103238.22
2019-03-29T01:18:24.690Z,103240.00
2019-03-29T01:21:00.136Z,103241.33
2019-03-29T01:26:58.843Z,103222.67
2019-03-29T01:32:59.021Z,103225.75
2019-03-29T01:35:28.720Z,103228.86
2019-03-29T01:37:58.709Z,103230.63
2019-03-29T01:41:10.568Z,103228.86
2019-03-29T01:47:30.315Z,103232.84
2019-03-29T01:54:22.301Z,103229.73
2019-03-29T02:04:05.805Z,103222.17
2019-03-29T02:10:17.982Z,103218.19
2019-03-29T02:19:21.474Z,103208.86
2019-03-29T02:21:50.856Z,103207.55
2019-03-29T02:24:23.272Z,103208.42
2019-03-29T03:07:56.056Z,103203.98
2019-03-29T03:46:46.647Z,103207.56
2019-03-29T03:57:25.632Z,103195.60
2019-03-29T04:07:57.395Z,103200.02
2019-03-29T04:11:43.214Z,103187.16
2019-03-29T04:14:03.991Z,103190.27
2019-03-29T04:24:20.240Z,103172.10
2019-03-29T05:53:55.140Z,103162.59
2019-03-29T05:57:03.496Z,103162.13
2019-03-29T06:00:24.479Z,103153.30
2019-03-29T06:03:33.971Z,103159.53
2019-03-29T06:26:53.780Z,103163.58
2019-03-29T06:29:35.056Z,103160.06
2019-03-29T06:43:47.648Z,103156.56
2019-03-29T06:46:17.282Z,103153.06
2019-03-29T06:49:41.807Z,103150.55
2019-03-29T06:52:14.256Z,103149.27
2019-03-29T06:54:54.915Z,103139.12
2019-03-29T06:58:49.277Z,103144.49
2019-03-29T07:05:10.624Z,103150.37
2019-03-29T07:07:40.545Z,103144.59
2019-03-29T07:10:11.560Z,103144.13
2019-03-29T07:12:41.171Z,103143.69
2019-03-29T07:15:11.470Z,103142.31
2019-03-29T07:17:41.021Z,103140.52
2019-03-29T07:20:10.501Z,103142.70
2019-03-29T07:22:40.143Z,103135.99
2019-03-29T07:25:10.942Z,103139.05
2019-03-29T07:27:46.780Z,103136.78
2019-03-29T07:30:12.106Z,103142.06
2019-03-29T07:32:42.020Z,103141.55
2019-03-29T07:35:11.882Z,103136.56
2019-03-29T07:37:41.497Z,103144.05
2019-03-29T07:40:14.050Z,103147.08
2019-03-29T07:42:50.786Z,103143.36
2019-03-29T07:45:20.389Z,103140.64
2019-03-29T07:47:54.611Z,103139.69
2019-03-29T07:50:28.939Z,103150.31
2019-03-29T07:52:58.454Z,103140.91
2019-03-29T07:55:27.988Z,103143.00
2019-03-29T07:57:57.815Z,103143.11
2019-03-29T08:00:27.303Z,103140.98
2019-03-29T08:02:56.880Z,103140.27
2019-03-29T08:05:26.180Z,103138.94
2019-03-29T08:07:55.893Z,103140.75
2019-03-29T08:10:30.842Z,103139.84
2019-03-29T08:12:56.665Z,103140.09
2019-03-29T08:15:25.932Z,103138.36
2019-03-29T08:17:55.310Z,103134.12
2019-03-29T08:20:40.258Z,103135.73
2019-03-29T08:22:56.083Z,103141.63
2019-03-29T08:25:25.421Z,103129.41
2019-03-29T08:27:54.940Z,103126.27
2019-03-29T08:30:24.448Z,103130.23
2019-03-29T08:32:53.987Z,103127.95
2019-03-29T08:35:23.680Z,103130.42
2019-03-29T08:37:53.078Z,103125.69
2019-03-29T08:40:22.806Z,103126.55
2019-03-29T08:42:52.371Z,103128.37
2019-03-29T08:45:21.715Z,103121.23
2019-03-29T08:47:51.015Z,103131.05
2019-03-29T08:50:20.278Z,103124.53
2019-03-29T08:52:49.781Z,103128.75
2019-03-29T08:55:19.328Z,103125.11
2019-03-29T08:57:51.932Z,103122.97
2019-03-29T09:00:32.027Z,103127.86
2019-03-29T09:03:01.857Z,103123.22
2019-03-29T09:05:31.266Z,103111.02
2019-03-29T09:08:01.585Z,103112.45
2019-03-29T09:10:31.331Z,103108.97
2019-03-29T09:13:04.220Z,103106.35
2019-03-29T09:15:32.504Z,103101.03
2019-03-29T09:18:02.019Z,103099.41
2019-03-29T09:20:34.507Z,103099.42
2019-03-29T09:23:02.971Z,103102.08
2019-03-29T09:25:32.938Z,103102.95
2019-03-29T09:28:02.255Z,103101.39
2019-03-29T09:30:31.636Z,103098.66
2019-03-29T09:33:01.042Z,103098.70
2019-03-29T09:35:30.732Z,103089.78
2019-03-29T09:38:00.050Z,103095.59
2019-03-29T09:40:29.573Z,103096.00
2019-03-29T09:43:07.259Z,103089.32
2019-03-29T09:45:30.127Z,103087.00
2019-03-29T09:47:59.723Z,103087.80
2019-03-29T09:50:29.359Z,103089.99
2019-03-29T09:53:01.143Z,103083.70
2019-03-29T09:55:30.746Z,103088.05
2019-03-29T09:58:02.438Z,103078.89
2019-03-29T10:00:32.026Z,103078.91
2019-03-29T10:03:01.371Z,103071.85
2019-03-29T10:05:31.735Z,103080.52
2019-03-29T10:08:02.087Z,103081.66
2019-03-29T10:10:34.358Z,103079.69
2019-03-29T10:13:03.322Z,103079.15
2019-03-29T10:15:32.613Z,103072.58
2019-03-29T10:18:02.027Z,103062.52
2019-03-29T10:20:31.745Z,103068.88
2019-03-29T10:23:01.003Z,103068.22
2019-03-29T10:25:30.533Z,103072.02
2019-03-29T10:28:01.008Z,103057.64
2019-03-29T10:30:38.851Z,103050.58
2019-03-29T10:33:08.430Z,103052.75
2019-03-29T10:35:50.894Z,103052.30
2019-03-29T10:38:09.308Z,103043.48
2019-03-29T10:40:38.660Z,103044.88
2019-03-29T10:43:08.082Z,103046.06
2019-03-29T10:45:40.280Z,103035.52
2019-03-29T10:48:09.633Z,103028.23
2019-03-29T10:50:40.601Z,103025.44
2019-03-29T10:53:10.246Z,103022.48
2019-03-29T10:55:39.524Z,103020.53
2019-03-29T10:58:09.827Z,103015.09
2019-03-29T11:00:40.939Z,103016.79
2019-03-29T11:03:10.399Z,103016.63
2019-03-29T11:05:39.734Z,103007.25
2019-03-29T11:08:11.619Z,103013.78
2019-03-29T11:10:40.734Z,103010.64
2019-03-29T11:13:13.675Z,103009.02
2019-03-29T11:15:41.847Z,103005.52
2019-03-29T11:18:11.450Z,102997.93
2019-03-29T11:20:41.279Z,103001.67
2019-03-29T11:23:10.631Z,103000.66
2019-03-29T11:25:40.245Z,102993.07
2019-03-29T11:28:09.940Z,102995.28
2019-03-29T11:30:42.414Z,102994.41
2019-03-29T11:33:10.313Z,102996.16
2019-03-29T11:35:39.826Z,102990.13
2019-03-29T11:38:10.584Z,102982.97
2019-03-29T11:40:39.890Z,102982.51
2019-03-29T11:43:09.249Z,102981.39
2019-03-29T11:45:38.857Z,102975.69
2019-03-29T11:48:09.579Z,102978.70
2019-03-29T11:50:39.456Z,102967.80
2019-03-29T11:53:09.016Z,102971.11
2019-03-29T11:55:39.360Z,102966.92
2019-03-29T11:58:08.939Z,102969.56
2019-03-29T12:00:39.575Z,102971.12
2019-03-29T12:03:09.866Z,102966.61
2019-03-29T12:05:39.368Z,102960.76
2019-03-29T12:08:09.077Z,102954.59
2019-03-29T12:10:38.715Z,102948.85
2019-03-29T12:13:09.714Z,102953.30
2019-03-29T12:15:39.353Z,102953.42
2019-03-29T12:18:08.982Z,102947.62
2019-03-29T12:20:38.862Z,102949.08
2019-03-29T12:23:08.567Z,102946.66
2019-03-29T12:25:38.029Z,102941.48
2019-03-29T12:28:08.551Z,102936.82
2019-03-29T12:30:39.349Z,102937.94
2019-03-29T12:33:08.870Z,102931.28
2019-03-29T12:35:38.388Z,102926.59
2019-03-29T12:38:09.872Z,102926.49
2019-03-29T12:40:39.368Z,102925.64
2019-03-29T12:43:12.283Z,102914.37
2019-03-29T12:45:40.148Z,102911.84
2019-03-29T12:48:09.395Z,102903.98
2019-03-29T12:50:38.972Z,102905.48
2019-03-29T12:53:08.485Z,102903.70
2019-03-29T12:55:38.099Z,102889.36
2019-03-29T12:58:07.673Z,102888.14
2019-03-29T13:00:38.832Z,102892.09
2019-03-29T13:03:08.544Z,102894.14
2019-03-29T13:05:37.837Z,102888.92
2019-03-29T13:08:07.370Z,102882.05
2019-03-29T13:10:36.760Z,102880.62
2019-03-29T13:13:06.451Z,102879.73
2019-03-29T13:15:36.767Z,102875.40
2019-03-29T13:18:06.584Z,102869.84
2019-03-29T13:20:36.649Z,102863.63
2019-03-29T13:23:13.570Z,102865.27
2019-03-29T13:25:41.679Z,102860.72
2019-03-29T13:28:10.947Z,102852.39
2019-03-29T13:30:40.532Z,102844.39
2019-03-29T13:33:10.662Z,102848.09
2019-03-29T13:35:40.151Z,102847.81
2019-03-29T13:38:09.676Z,102846.02
2019-03-29T13:40:39.235Z,102836.59
2019-03-29T13:43:08.864Z,102828.80
2019-03-29T13:45:40.955Z,102822.19
2019-03-29T13:48:10.632Z,102825.20
2019-03-29T13:50:42.644Z,102826.36
2019-03-29T13:53:12.268Z,102821.17
2019-03-29T13:55:41.528Z,102815.89
2019-03-29T13:58:11.115Z,102805.70
2019-03-29T14:00:40.614Z,102810.39
2019-03-29T14:03:10.145Z,102806.45
2019-03-29T14:05:39.671Z,102804.76
2019-03-29T14:08:09.176Z,102797.17
2019-03-29T14:10:40.014Z,102791.44
2019-03-29T14:13:09.494Z,102791.44
2019-03-29T14:15:38.800Z,102782.96
2019-03-29T14:18:08.332Z,102776.34
2019-03-29T14:20:37.981Z,102774.17
2019-03-29T14:23:07.510Z,102775.20
2019-03-29T14:25:46.306Z,102771.68
2019-03-29T14:28:15.652Z,102765.52
2019-03-29T14:30:45.209Z,102768.73
2019-03-29T14:33:14.503Z,102754.34
2019-03-29T14:35:43.847Z,102752.54
2019-03-29T14:38:13.515Z,102749.11
2019-03-29T14:40:43.063Z,102749.16
2019-03-29T14:43:12.543Z,102742.46
2019-03-29T14:45:44.706Z,102747.39
2019-03-29T14:48:14.245Z,102738.52
2019-03-29T14:50:43.814Z,102737.75
2019-03-29T14:53:13.388Z,102726.20
2019-03-29T14:55:42.928Z,102724.54
2019-03-29T14:58:12.245Z,102719.29
2019-03-29T15:00:43.607Z,102720.66
2019-03-29T15:03:16.454Z,102719.74
2019-03-29T15:05:47.731Z,102717.06
2019-03-29T15:08:20.328Z,102718.86
2019-03-29T15:10:49.642Z,102709.59
2019-03-29T15:13:20.764Z,102706.94
2019-03-29T15:15:53.379Z,102704.73
2019-03-29T15:18:21.312Z,102693.67
2019-03-29T15:20:53.777Z,102692.79
2019-03-29T15:23:22.051Z,102693.27
2019-03-29T15:25:52.487Z,102689.73
2019-03-29T15:28:21.988Z,102693.80
2019-03-29T15:30:52.551Z,102686.27
2019-03-29T15:33:22.189Z,102686.78
2019-03-29T15:35:51.727Z,102681.48
2019-03-29T15:38:21.082Z,102677.45
2019-03-29T15:40:50.561Z,102675.31
2019-03-29T15:43:20.630Z,102671.78
2019-03-29T15:45:50.200Z,102674.91
2019-03-29T15:48:19.463Z,102669.98
2019-03-29T15:50:49.143Z,102670.47
2019-03-29T15:53:18.681Z,102670.03
2019-03-29T15:55:47.948Z,102670.55
2019-03-29T15:58:26.280Z,102669.66
2019-03-29T16:00:55.789Z,102663.87
2019-03-29T16:03:25.144Z,102661.66
2019-03-29T16:05:56.333Z,102657.20
2019-03-29T16:08:25.856Z,102662.64
2019-03-29T16:10:58.195Z,102662.69
2019-03-29T16:13:27.814Z,102658.75
2019-03-29T16:16:00.139Z,102655.69
2019-03-29T16:18:29.651Z,102655.27
2019-03-29T16:20:59.194Z,102655.82
2019-03-29T16:23:28.814Z,102647.44
2019-03-29T16:25:58.612Z,102644.38
2019-03-29T16:28:28.401Z,102649.36
2019-03-29T16:30:58.085Z,102646.27
2019-03-29T16:33:27.591Z,102640.48
2019-03-29T16:35:56.881Z,102636.56
2019-03-29T16:38:26.427Z,102636.71
2019-03-29T16:40:56.051Z,102638.12
2019-03-29T16:43:26.164Z,102632.86
2019-03-29T16:45:55.462Z,102631.21
2019-03-29T16:48:24.719Z,102625.88
2019-03-29T16:50:54.267Z,102625.91
2019-03-29T16:53:26.586Z,102631.33
2019-03-29T16:55:58.147Z,102628.70
2019-03-29T16:58:28.063Z,102624.87
2019-03-29T17:00:57.930Z,102618.70
2019-03-29T17:03:35.488Z,102497.84
2019-03-29T17:06:02.445Z,102611.72
2019-03-29T17:08:35.975Z,102604.27
2019-03-29T17:11:06.351Z,102607.86
2019-03-29T17:13:35.868Z,102608.84
2019-03-29T17:16:06.866Z,102603.09
2019-03-29T17:18:47.888Z,102605.41
2019-03-29T17:21:17.476Z,102601.53
2019-03-29T17:23:47.123Z,102608.77
2019-03-29T17:26:16.766Z,102602.17
2019-03-29T17:28:46.315Z,102600.49
2019-03-29T17:31:16.778Z,102599.70
2019-03-29T17:33:47.947Z,102598.95
2019-03-29T17:36:17.256Z,102595.02
2019-03-29T17:38:47.091Z,102601.81
2019-03-29T17:41:16.612Z,102600.58
2019-03-29T17:43:46.202Z,102603.41
2019-03-29T17:46:17.131Z,102606.61
2019-03-29T17:48:46.494Z,102603.20
2019-03-29T17:51:16.016Z,102601.53
2019-03-29T17:53:45.708Z,102607.01
2019-03-29T17:56:15.190Z,102604.48
2019-03-29T17:58:44.852Z,102609.91
2019-03-29T18:01:14.425Z,102607.77
2019-03-29T18:03:43.806Z,102605.63
2019-03-29T18:06:13.607Z,102607.98
2019-03-29T18:08:43.425Z,102605.39
2019-03-29T18:11:13.699Z,102605.47
2019-03-29T18:13:46.143Z,102601.53
2019-03-29T18:16:29.586Z,102598.97
2019-03-29T18:18:47.182Z,102600.77
2019-03-29T18:21:16.646Z,102597.27
2019-03-29T18:23:46.183Z,102596.44
2019-03-29T18:26:18.312Z,102601.38
2019-03-29T18:28:53.197Z,102606.31
2019-03-29T18:31:23.353Z,102603.27
2019-03-29T18:33:55.752Z,102596.69
2019-03-29T18:36:25.143Z,102605.14
2019-03-29T18:38:58.925Z,102607.38
2019-03-29T18:41:34.131Z,102605.20
2019-03-29T18:44:03.782Z,102603.91
2019-03-29T18:46:44.068Z,102610.13
2019-03-29T18:49:05.494Z,102609.72
2019-03-29T18:51:37.885Z,102611.09
2019-03-29T18:54:10.309Z,102601.38
2019-03-29T18:56:39.611Z,102605.84
2019-03-29T18:59:09.303Z,102604.07
2019-03-29T19:01:47.001Z,102601.00
2019-03-29T19:04:30.526Z,102491.41
2019-03-29T19:07:05.323Z,102595.30
2019-03-29T19:09:44.452Z,102596.66
2019-03-29T19:12:26.858Z,102600.66
2019-03-29T19:15:28.772Z,102595.37
2019-03-29T19:18:07.308Z,102595.39
2019-03-29T19:20:43.886Z,102595.87
2019-03-29T19:23:13.625Z,102594.53
2019-03-29T19:25:44.220Z,102592.34
2019-03-29T19:28:13.765Z,102595.92
2019-03-29T19:30:43.364Z,102595.02
2019-03-29T19:33:12.972Z,102588.40
2019-03-29T19:35:42.619Z,102597.28
2019-03-29T19:38:12.331Z,102594.17
2019-03-29T19:40:48.654Z,102595.52
2019-03-29T19:43:29.038Z,102591.12
2019-03-29T19:45:56.789Z,102589.37
2019-03-29T19:48:26.446Z,102590.69
2019-03-29T19:50:56.186Z,102589.37
2019-03-29T19:53:25.795Z,102586.73
2019-03-29T19:55:55.371Z,102590.70
2019-03-29T19:58:24.929Z,102588.51
2019-03-29T20:00:54.691Z,102589.85
2019-03-29T20:03:24.219Z,102589.84
2019-03-29T20:05:53.870Z,102594.72
2019-03-29T20:08:23.567Z,102596.52
2019-03-29T20:10:54.809Z,102594.27
2019-03-29T20:13:24.315Z,102593.41
2019-03-29T20:15:53.824Z,102591.63
2019-03-29T20:18:23.422Z,102590.27
2019-03-29T20:20:55.046Z,102586.73
2019-03-29T20:23:25.264Z,102588.52
2019-03-29T20:25:54.876Z,102589.37
2019-03-29T20:28:24.381Z,102585.84
2019-03-29T20:30:55.228Z,102593.38
2019-03-29T20:33:24.558Z,102597.33
2019-03-29T20:35:54.643Z,102596.89
2019-03-29T20:38:24.195Z,102596.91
2019-03-29T20:40:55.765Z,102587.14
2019-03-29T20:43:27.366Z,102594.67
2019-03-29T20:45:56.677Z,102586.23
2019-03-29T20:48:26.466Z,102586.23
2019-03-29T20:50:59.518Z,102586.67
2019-03-29T20:53:28.899Z,102581.81
2019-03-29T20:55:58.578Z,102577.82
2019-03-29T20:58:28.246Z,102577.38
2019-03-29T21:00:57.845Z,102571.15
2019-03-29T21:03:27.407Z,102574.23
2019-03-29T21:05:57.044Z,102576.88
2019-03-29T21:08:26.878Z,102574.66
2019-03-29T21:10:58.827Z,102571.12
2019-03-29T21:13:28.357Z,102564.48
2019-03-29T21:15:57.886Z,102572.86
2019-03-29T21:18:27.383Z,102571.09
2019-03-29T21:20:57.074Z,102572.83
2019-03-29T21:23:26.672Z,102575.91
2019-03-29T21:25:56.058Z,102571.46
2019-03-29T21:28:25.584Z,102568.81
2019-03-29T21:30:56.909Z,102570.56
2019-03-29T21:33:26.434Z,102569.66
2019-03-29T21:35:55.921Z,102566.11
2019-03-29T21:38:25.410Z,102563.00
2019-03-29T21:40:54.674Z,102554.58
2019-03-29T21:43:24.169Z,102558.98
2019-03-29T21:45:53.787Z,102557.20
2019-03-29T21:48:28.918Z,102552.78
2019-03-29T21:50:55.444Z,102550.09
2019-03-29T21:53:25.029Z,102543.91
2019-03-29T21:55:54.514Z,102535.04
2019-03-29T21:58:24.040Z,102535.89
2019-03-29T22:00:53.543Z,102532.78
2019-03-29T22:03:23.299Z,102534.54
2019-03-29T22:05:52.939Z,102535.86
2019-03-29T22:08:22.448Z,102529.62
2019-03-29T22:10:52.026Z,102534.03
2019-03-29T22:13:21.521Z,102533.58
2019-03-29T22:15:51.014Z,102536.64
2019-03-29T22:18:20.303Z,102531.34
2019-03-29T22:20:50.682Z,102536.61
2019-03-29T22:23:20.213Z,102529.98
2019-03-29T22:25:49.711Z,102532.59
2019-03-29T22:28:19.212Z,102531.25
2019-03-29T22:30:48.496Z,102530.80
2019-03-29T22:33:17.994Z,102527.26
2019-03-29T22:35:47.326Z,102527.22
2019-03-29T22:38:16.832Z,102521.02
2019-03-29T22:40:48.802Z,102521.01
2019-03-29T22:43:18.359Z,102516.58
2019-03-29T22:45:47.668Z,102516.12
2019-03-29T22:48:17.243Z,102514.31
2019-03-29T22:50:47.272Z,102509.03
2019-03-29T22:53:16.808Z,102506.34
2019-03-29T22:55:46.063Z,102491.33
2019-03-29T22:58:15.547Z,102496.12
2019-03-29T23:00:48.242Z,102499.64
2019-03-29T23:03:21.235Z,102496.53
2019-03-29T23:05:50.760Z,102495.20
2019-03-29T23:08:20.098Z,102490.73
2019-03-29T23:10:49.632Z,102489.36
2019-03-29T23:13:19.129Z,102488.48
2019-03-29T23:15:48.615Z,102484.48
2019-03-29T23:18:17.946Z,102479.61
2019-03-29T23:20:47.862Z,102483.11
2019-03-29T23:23:17.179Z,102483.98
2019-03-29T23:25:47.398Z,102476.44
2019-03-29T23:28:16.676Z,102476.43
2019-03-29T23:30:46.247Z,102473.73
2019-03-29T23:33:15.725Z,102470.17
2019-03-29T23:35:45.322Z,102469.25
2019-03-29T23:38:15.062Z,102470.58
2019-03-29T23:40:44.611Z,102470.98
2019-03-29T23:43:14.136Z,102474.50
2019-03-29T23:45:43.393Z,102471.41
2019-03-29T23:48:12.770Z,102464.33
2019-03-29T23:50:42.343Z,102455.02
2019-03-29T23:53:11.649Z,102452.80
2019-03-29T23:55:41.248Z,102452.78
2019-03-29T23:58:10.830Z,102449.67
